Tiempo atmosférico en la estación meteorológica de Almonte, Huelva (5 m.)



Fecha
DESCASC
Temp. máxima en grados centígrados (hora)
DESCASC
Temp. mínima en grados centígrados (hora)
DESCASC
Temp. media en grados centígrados
DESCASC
Racha de viento máxima en m/sg (hora)
DESCASC
Velocidad máxima media en intervalos de 10 minutos(hora)
DESCASC
Precipitaciones diarias en mm
DESCASC
Precipitaciones de 00:00 a 06:00 en mm
DESCASC
Precipitaciones de 06:00 a 12:00 en mm
DESCASC
Precipitaciones de 12:00 a 18:00 en mm
DESCASC
Precipitaciones de 18:00 a 24:00 en mm
DESCASC
17-10-2019 24.8 (13:40) 6.8 (05:30) 15.8 8.61 (15:30) 6.39 (16:40) 0 0 0 0 0
16-10-2019 25.3 (15:20) 5.9 (08:30) 15.6 7.78 (17:00) 5.83 (16:50) 0 0 0 0 0
15-10-2019 23.1 (16:10) 8 (08:40) 15.6 7.22 (14:20) 5 (18:00) 0 0 0 0 0
14-10-2019 22.9 (16:40) 14.1 (23:40) 18.5 14.44 (17:00) 10 (17:30) 2.2 0 2.2 0 0
13-10-2019 28.7 (15:40) 13 (00:00) 20.9 6.67 (14:50) 4.44 (18:50) 0 0 0 0 0
12-10-2019 28.5 (14:20) 15.7 (00:00) 22.1 13.89 (17:00) 8.61 (17:00) 0 0 0 0 0
11-10-2019 30.1 (15:20) 13.9 (00:00) 22 9.17 (17:40) 7.22 (17:40) 0 0 0 0 0
10-10-2019 32.8 (15:00) 12.6 (00:00) 22.7 8.06 (17:10) 6.39 (17:10) 0 0 0 0 0
09-10-2019 29.8 (15:20) 12 (00:00) 20.9 7.22 (17:30) 5.28 (16:30) 0 0 0 0 0
08-10-2019 33.2 (14:40) 12.7 (00:00) 23 9.17 (17:30) 6.94 (16:50) 0 0 0 0 0
07-10-2019 32.5 (15:10) 9.6 (00:00) 21.1 7.22 (16:10) 5.83 (16:10) 0 0 0 0 0
06-10-2019 29.2 (14:30) 10.2 (00:00) 19.7 8.61 (16:20) 6.11 (16:30) 0 0 0 0 0
05-10-2019 27.7 (15:10) 11.4 (00:00) 19.6 8.61 (14:40) 6.67 (16:50) 0 0 0 0 0
04-10-2019 27.8 (17:00) 11.1 (00:00) 19.4 8.89 (17:10) 6.67 (17:10) 0 0 0 0 0
03-10-2019 25.2 (15:00) 8.2 (00:00) 16.7 10 (17:10) 7.5 (16:50) 0 0 0 0 0
02-10-2019 26.2 (15:50) 11.4 (00:00) 18.8 11.11 (16:40) 8.33 (16:40) 0 0 0 0 0
01-10-2019 30.6 (14:50) 12.5 (00:00) 21.6 11.94 (17:30) 8.89 (16:40) 0 0 0 0 0
30-09-2019 30.4 (15:50) 11.1 (00:00) 20.8 7.5 (16:10) 5.83 (17:30) 0 0 0 0 0
29-09-2019 28.3 (14:40) 9.8 (00:00) 19 8.06 (13:50) 6.11 (16:00) 0 0 0 0 0
28-09-2019 32.3 (14:00) 12 (00:00) 22.1 7.5 (15:40) 5.83 (18:50) 0 0 0 0 0
27-09-2019 28.9 (15:20) 9.6 (00:00) 19.3 8.06 (16:30) 6.11 (16:00) 0 0 0 0 0
26-09-2019 30.7 (14:00) 10.2 (00:00) 20.5 8.06 (16:40) 6.11 (16:00) 0 0 0 0 0
25-09-2019 28.3 (16:40) 16.8 (00:00) 22.5 9.17 (16:50) 6.94 (17:00) 0 0 0 0 0
24-09-2019 31.2 (14:20) 10.6 (00:00) 20.9 8.61 (17:00) 6.39 (16:50) 0 0 0 0 0
23-09-2019 28.6 (15:00) 11.6 (00:00) 20.1 8.33 (15:30) 6.39 (15:30) 0 0 0 0 0
22-09-2019 25.9 (16:00) 17.9 (00:00) 21.9 11.39 (05:30) 7.5 (16:30) 2 1.2 0.8 0 0
21-09-2019 24.7 (14:40) 14.7 (00:00) 19.7 8.89 (15:10) 5.83 (14:50) 0.8 0 0 0 0.8
20-09-2019 26.7 (16:50) 14.3 (00:00) 20.5 8.33 (14:30) 5.83 (12:40) 0 0 0 0 0
19-09-2019 27 (15:50) 12.3 (00:00) 19.7 8.61 (17:20) 5.83 (17:30) 0 0 0 0 0

Gráficas

Temp. máximas Temp. mínimas Temp. medias Precipitaciones Rachas de viento máximas Velocidades máximas media en intervalos de 10 minutos

Datos horarios

Fecha y hora oficial Temperatura (ºC) Velocidad del viento (km/h) Dirección del viento Racha (km/h) Dirección de racha Precipitación (mm) Presión (hPa) Tendencia (hPa) Humedad (%)
2019-10-18 23:00:00 17.7 9 Sudoeste 15 Oeste 0 -- -- 90
2019-10-18 22:00:00 18 8 Oeste 12 Oeste 0 -- -- 92
2019-10-18 21:00:00 18.9 6 Oeste 15 Sudoeste 0 -- -- 90
2019-10-18 20:00:00 20.4 12 Sudoeste 20 Sudoeste 0 -- -- 88
2019-10-18 19:00:00 22.3 16 Sudoeste 25 Sudoeste 0 -- -- 80
2019-10-18 18:00:00 23.2 19 Sudoeste 29 Sudoeste 0 -- -- 75
2019-10-18 17:00:00 23.8 20 Sudoeste 29 Oeste 0 -- -- 72
2019-10-18 16:00:00 24.1 20 Sudoeste 32 Sudoeste 0 -- -- 70
2019-10-18 15:00:00 24.9 21 Sudoeste 31 Oeste 0 -- -- 68
2019-10-18 14:00:00 24.6 20 Sudoeste 33 Sudoeste 0 -- -- 68
2019-10-18 13:00:00 24.2 17 Sudoeste 26 Oeste 0 -- -- 68
2019-10-18 12:00:00 23 15 Sudoeste 21 Sudoeste 0 -- -- 72
2019-10-18 11:00:00 19.8 5 Oeste 9 Oeste 0 -- -- 94
2019-10-18 10:00:00 16.3 0 Calma 5 Oeste 0 -- -- 98
2019-10-18 09:00:00 11.6 3 Noroeste 4 Noroeste 0 -- -- 96
2019-10-18 08:00:00 12.2 3 Sur 5 Sur 0 -- -- 96
2019-10-18 07:00:00 12.9 0 Calma 8 Noroeste 0 -- -- 95
2019-10-18 06:00:00 13.1 2 Noroeste 4 Noroeste 0 -- -- 96
2019-10-18 05:00:00 12.6 2 Sudeste 4 Sudeste 0 -- -- 93
2019-10-18 04:00:00 14.1 2 Oeste 6 Oeste 0 -- -- 94
2019-10-18 03:00:00 14.6 0 Calma 8 Oeste 0 -- -- 89
2019-10-18 02:00:00 16.1 0 Calma 9 Oeste 0 -- -- 90
2019-10-18 01:00:00 17.5 7 Oeste 15 Oeste 0 -- -- 91
2019-10-18 00:00:00 17.5 9 Oeste 13 Oeste 0 -- -- 90
2019-10-17 23:00:00 17.8 8 Oeste 13 Oeste 0 -- -- 90
2019-10-17 22:00:00 18.5 10 Oeste 18 Oeste 0 -- -- 87
2019-10-17 21:00:00 19.1 14 Oeste 22 Oeste 0 -- -- 84
2019-10-17 20:00:00 19.6 13 Oeste 30 Oeste 0 -- -- 80
2019-10-17 19:00:00 21.4 20 Oeste 30 Oeste 0 -- -- 70
2019-10-17 18:00:00 22.2 22 Oeste 31 Oeste 0 -- -- 65
2019-10-17 17:00:00 23.2 23 Oeste 31 Oeste 0 -- -- 53
2019-10-17 16:00:00 23.5 21 Sudoeste 31 Sudoeste 0 -- -- 52
2019-10-17 15:00:00 23.5 19 Oeste 28 Oeste 0 -- -- 52
2019-10-17 14:00:00 24.3 15 Sudoeste 23 Sudoeste 0 -- -- 46
2019-10-17 13:00:00 22.2 4 Nordeste 9 Oeste 0 -- -- 47
2019-10-17 12:00:00 19.2 3 Norte 9 Este 0 -- -- 55
2019-10-17 11:00:00 14.7 5 Nordeste 9 Nordeste 0 -- -- 74
2019-10-17 10:00:00 9.9 3 Nordeste 6 Este 0 -- -- 94
2019-10-17 09:00:00 10.4 5 Noroeste 11 Noroeste 0 -- -- 94
2019-10-17 08:00:00 10.1 6 Noroeste 11 Oeste 0 -- -- 94
2019-10-17 07:00:00 9.4 5 Noroeste 12 Oeste 0 -- -- 95
2019-10-17 06:00:00 8.2 6 Oeste 10 Oeste 0 -- -- 97
2019-10-17 05:00:00 8.1 5 Oeste 8 Oeste 0 -- -- 94
2019-10-17 04:00:00 8.9 2 Sudoeste 4 Sur 0 -- -- 93
2019-10-17 03:00:00 8.7 3 Sur 7 Sudeste 0 -- -- 92
2019-10-17 02:00:00 9.3 3 Sudeste 7 Sudeste 0 -- -- 87
2019-10-17 01:00:00 11.3 4 Este 8 Noroeste 0 -- -- 83
2019-10-17 00:00:00 14.9 3 Oeste 12 Oeste 0 -- -- 81
2019-10-16 23:00:00 15.4 9 Oeste 14 Oeste 0 -- -- 77
2019-10-16 22:00:00 15.9 9 Oeste 15 Oeste 0 -- -- 74
2019-10-16 21:00:00 16.8 9 Oeste 15 Oeste 0 -- -- 64
2019-10-16 20:00:00 18.4 12 Oeste 24 Oeste 0 -- -- 58
2019-10-16 19:00:00 21.4 17 Oeste 25 Oeste 0 -- -- 46
2019-10-16 18:00:00 22.7 19 Oeste 27 Sudoeste 0 -- -- 39
2019-10-16 17:00:00 23.5 20 Oeste 28 Sudoeste 0 -- -- 40
2019-10-16 16:00:00 24.5 18 Sudoeste 24 Sudoeste 0 -- -- 36
2019-10-16 15:00:00 24.7 5 Este 19 Nordeste 0 -- -- 32
2019-10-16 14:00:00 23.7 5 Este 18 Nordeste 0 -- -- 34
2019-10-16 13:00:00 21.8 10 Nordeste 21 Nordeste 0 -- -- 38
2019-10-16 12:00:00 19.1 10 Nordeste 21 Nordeste 0 -- -- 46
2019-10-16 11:00:00 15.3 11 Nordeste 21 Nordeste 0 -- -- 59
2019-10-16 10:00:00 10.5 7 Nordeste 12 Nordeste 0 -- -- 81
2019-10-16 09:00:00 7.7 3 Norte 7 Noroeste 0 -- -- 85
2019-10-16 08:00:00 7.1 3 Norte 6 Norte 0 -- -- 84
2019-10-16 07:00:00 8.7 5 Norte 12 Norte 0 -- -- 83
2019-10-16 06:00:00 9.4 6 Norte 11 Noroeste 0 -- -- 80
2019-10-16 05:00:00 8.9 3 Norte 8 Nordeste 0 -- -- 85
2019-10-16 04:00:00 9.7 4 Norte 13 Norte 0 -- -- 84
2019-10-16 03:00:00 7.8 2 Norte 9 Noroeste 0 -- -- 87
2019-10-16 02:00:00 10.8 6 Noroeste 10 Noroeste 0 -- -- 88
2019-10-16 01:00:00 10.8 3 Noroeste 9 Oeste 0 -- -- 81
2019-10-16 00:00:00 11.6 7 Oeste 11 Oeste 0 -- -- 78
2019-10-15 23:00:00 14.3 6 Oeste 10 Noroeste 0 -- -- 70
2019-10-15 22:00:00 15.5 7 Oeste 13 Oeste 0 -- -- 67
2019-10-15 21:00:00 15.6 8 Oeste 14 Oeste 0 -- -- 70
2019-10-15 20:00:00 17.4 11 Oeste 18 Oeste 0 -- -- 62
2019-10-15 19:00:00 19.5 14 Oeste 22 Oeste 0 -- -- 56
2019-10-15 18:00:00 21.3 18 Oeste 23 Oeste 0 -- -- 47
2019-10-15 17:00:00 22.7 16 Oeste 24 Sudoeste 0 -- -- 39
2019-10-15 16:00:00 22.9 14 Sudoeste 24 Sudoeste 0 -- -- 38
2019-10-15 15:00:00 21.9 11 Nordeste 26 Nordeste 0 -- -- 35
2019-10-15 14:00:00 21.1 10 Nordeste 23 Nordeste 0 -- -- 39
2019-10-15 13:00:00 19.9 10 Nordeste 24 Nordeste 0 -- -- 41
2019-10-15 12:00:00 17.8 11 Nordeste 23 Nordeste 0 -- -- 54
2019-10-15 11:00:00 15 8 Nordeste 13 Nordeste 0 -- -- 67
2019-10-15 10:00:00 11 8 Nordeste 12 Norte 0 -- -- 84
2019-10-15 09:00:00 8.5 8 Norte 13 Norte 0 -- -- 90
2019-10-15 08:00:00 8.8 6 Norte 13 Noroeste 0 -- -- 88
2019-10-15 07:00:00 9.5 6 Norte 16 Norte 0 -- -- 86
2019-10-15 06:00:00 11.2 12 Norte 20 Norte 0 -- -- 85
2019-10-15 05:00:00 11.1 6 Noroeste 15 Noroeste 0 -- -- 85
2019-10-15 04:00:00 11 5 Noroeste 12 Noroeste 0 -- -- 87
2019-10-15 03:00:00 11.5 3 Noroeste 13 Noroeste 0 -- -- 83
2019-10-15 02:00:00 12.5 9 Noroeste 13 Noroeste 0 -- -- 82
2019-10-15 01:00:00 13 6 Oeste 15 Oeste 0 -- -- 78
2019-10-15 00:00:00 14.2 8 Oeste 13 Oeste 0 -- -- 79
2019-10-14 23:00:00 15.2 8 Oeste 12 Oeste 0 -- -- 77
2019-10-14 22:00:00 17.7 7 Oeste 15 Oeste 0 -- -- 70
2019-10-14 21:00:00 18.6 8 Oeste 30 Oeste 0 -- -- 80
2019-10-14 20:00:00 19.3 23 Oeste 39 Oeste 0 -- -- 77
2019-10-14 19:00:00 20.2 30 Oeste 49 Sudoeste 0 -- -- 72
2019-10-14 18:00:00 21.8 31 Oeste 51 Oeste 0 -- -- 60
2019-10-14 17:00:00 22.7 35 Oeste 52 Sudoeste 0 -- -- 57
2019-10-14 16:00:00 22.8 31 Oeste 47 Sudoeste 0 -- -- 57
2019-10-14 15:00:00 22.3 31 Oeste 44 Sudoeste 0 -- -- 61
2019-10-14 14:00:00 22.4 25 Oeste 32 Oeste 0 -- -- 63
2019-10-14 13:00:00 22.2 17 Oeste 29 Oeste 0 -- -- 68
2019-10-14 12:00:00 21.1 17 Oeste 29 Oeste 0 -- -- 77
2019-10-14 11:00:00 20.2 18 Oeste 29 Oeste 0 -- -- 78
2019-10-14 10:00:00 18.5 9 Oeste 22 Oeste 0 -- -- 85
2019-10-14 09:00:00 17.6 17 Oeste 33 Oeste 0 -- -- 90
2019-10-14 08:00:00 17.8 15 Sudoeste 23 Sudoeste 0 -- -- 95
2019-10-14 07:00:00 17.4 12 Sudoeste 28 Oeste 2.2 -- -- 94
2019-10-14 06:00:00 20.1 20 Sudoeste 33 Oeste 0 -- -- 82
2019-10-14 05:00:00 19.9 17 Sudoeste 28 Sudoeste 0 -- -- 88
2019-10-14 04:00:00 20.3 21 Sudoeste 28 Sudoeste 0 -- -- 89
2019-10-14 03:00:00 18.9 19 Sudoeste 26 Sudoeste 0 -- -- 96
2019-10-14 02:00:00 16.6 5 Sudoeste 9 Sudoeste 0 -- -- 95
2019-10-14 01:00:00 16.2 6 Sudoeste 8 Sudoeste 0 -- -- 92
2019-10-14 00:00:00 17.4 0 Calma 5 Oeste 0 -- -- 86
2019-10-13 23:00:00 19.1 2 Nordeste 8 Oeste 0 -- -- 86
2019-10-13 22:00:00 19.6 3 Sudoeste 20 Oeste 0 -- -- 85
2019-10-13 21:00:00 20.3 6 Oeste 15 Oeste 0 -- -- 81
2019-10-13 20:00:00 22.1 11 Oeste 24 Oeste 0 -- -- 74
2019-10-13 19:00:00 24.6 14 Oeste 23 Oeste 0 -- -- 66
2019-10-13 18:00:00 27.6 15 Sudoeste 21 Sudoeste 0 -- -- 56
2019-10-13 17:00:00 28.6 15 Sudoeste 21 Sudoeste 0 -- -- 53
2019-10-13 16:00:00 28.7 13 Sudoeste 22 Sudoeste 0 -- -- 53
2019-10-13 15:00:00 28.2 11 Sudoeste 24 Sudoeste 0 -- -- 55
2019-10-13 14:00:00 27.6 7 Sudeste 21 Sur 0 -- -- 56
2019-10-13 13:00:00 25.9 6 Sudeste 20 Este 0 -- -- 60
2019-10-13 12:00:00 23.1 4 Este 19 Este 0 -- -- 70
2019-10-13 11:00:00 20.7 10 Nordeste 19 Nordeste 0 -- -- 81
2019-10-13 10:00:00 16.5 4 Norte 8 Norte 0 -- -- 97
2019-10-13 09:00:00 15.4 4 Norte 10 Norte 0 -- -- 97
2019-10-13 08:00:00 14.7 3 Norte 8 Noroeste 0 -- -- 96
2019-10-13 07:00:00 14.8 0 Calma 9 Nordeste 0 -- -- 96
2019-10-13 06:00:00 13.5 6 Este 9 Este 0 -- -- 95
2019-10-13 05:00:00 13.2 0 Calma 6 Oeste 0 -- -- 95
2019-10-13 04:00:00 13.3 0 Calma 3 Norte 0 -- -- 93
2019-10-13 03:00:00 14.4 2 Sur 6 Sudeste 0 -- -- 93
2019-10-13 02:00:00 15.7 0 Calma 5 Oeste 0 -- -- 93
2019-10-13 01:00:00 17.1 6 Oeste 11 Sudoeste 0 -- -- 94
2019-10-13 00:00:00 17.7 6 Sur 13 Sudoeste 0 -- -- 92
2019-10-12 23:00:00 18.6 10 Sudoeste 14 Sudoeste 0 -- -- 90
2019-10-12 22:00:00 20.4 11 Sudoeste 22 Sudoeste 0 -- -- 87
2019-10-12 21:00:00 21.3 15 Sudoeste 25 Sudoeste 0 -- -- 85
2019-10-12 20:00:00 21.7 15 Sudoeste 29 Sudoeste 0 -- -- 85
2019-10-12 19:00:00 22 20 Sudoeste 36 Sudoeste 0 -- -- 85
2019-10-12 18:00:00 23.1 27 Sudoeste 45 Sur 0 -- -- 81
2019-10-12 17:00:00 25.5 31 Sur 50 Sur 0 -- -- 67
2019-10-12 16:00:00 26.1 30 Sudoeste 39 Sudoeste 0 -- -- 63
2019-10-12 15:00:00 28.5 16 Sudoeste 28 Sur 0 -- -- 57
2019-10-12 14:00:00 28.3 19 Sur 31 Oeste 0 -- -- 56
2019-10-12 13:00:00 25.3 20 Oeste 28 Oeste 0 -- -- 65
2019-10-12 12:00:00 26.8 7 Sudeste 20 Sur 0 -- -- 57
2019-10-12 11:00:00 24 5 Sudeste 10 Sur 0 -- -- 66
2019-10-12 10:00:00 19.1 3 Norte 10 Norte 0 -- -- 87
2019-10-12 09:00:00 17.1 4 Noroeste 13 Noroeste 0 -- -- 90
2019-10-12 08:00:00 16.9 9 Noroeste 15 Noroeste 0 -- -- 91
2019-10-12 07:00:00 16 0 Calma 6 Este 0 -- -- 91
2019-10-12 06:00:00 16.7 0 Calma 5 Nordeste 0 -- -- 87
2019-10-12 05:00:00 17.5 0 Calma 4 Nordeste 0 -- -- 85
2019-10-12 04:00:00 18.3 0 Calma 8 Nordeste 0 -- -- 84
2019-10-12 03:00:00 18.8 3 Norte 10 Nordeste 0 -- -- 85
2019-10-12 02:00:00 18.7 3 Norte 10 Sudeste 0 -- -- 86
2019-10-12 01:00:00 19.2 5 Sur 11 Norte 0 -- -- 84
2019-10-12 00:00:00 20 6 Norte 12 Norte 0 -- -- 85
2019-10-11 23:00:00 20.6 2 Oeste 14 Oeste 0 -- -- 83
2019-10-11 22:00:00 20.5 2 Sudeste 7 Oeste 0 -- -- 81
2019-10-11 21:00:00 21.4 6 Oeste 19 Oeste 0 -- -- 82
2019-10-11 20:00:00 22.6 13 Oeste 21 Oeste 0 -- -- 77
2019-10-11 19:00:00 25.1 15 Sudoeste 22 Oeste 0 -- -- 65
2019-10-11 18:00:00 25.2 19 Oeste 33 Sudoeste 0 -- -- 66
2019-10-11 17:00:00 29.9 10 Sudeste 25 Sur 0 -- -- 41
2019-10-11 16:00:00 29.4 8 Sudeste 31 Sur 0 -- -- 45
2019-10-11 15:00:00 29.3 17 Sur 25 Sur 0 -- -- 43
2019-10-11 14:00:00 28.9 9 Sudeste 17 Sur 0 -- -- 43
2019-10-11 13:00:00 24.9 6 Sudeste 17 Nordeste 0 -- -- 52
2019-10-11 12:00:00 22.6 3 Nordeste 8 Nordeste 0 -- -- 63
2019-10-11 11:00:00 19.3 5 Nordeste 8 Nordeste 0 -- -- 76
2019-10-11 10:00:00 15.6 2 Oeste 4 Oeste 0 -- -- 89
2019-10-11 09:00:00 14.2 0 Calma 3 Norte 0 -- -- 89
2019-10-11 08:00:00 14.2 3 Sur 6 Sudeste 0 -- -- 88
2019-10-11 07:00:00 14.9 2 Este 8 Noroeste 0 -- -- 85
2019-10-11 06:00:00 17 6 Noroeste 12 Noroeste 0 -- -- 83
2019-10-11 05:00:00 16.9 7 Norte 10 Norte 0 -- -- 84
2019-10-11 04:00:00 16.6 6 Nordeste 11 Norte 0 -- -- 83
2019-10-11 03:00:00 16.9 4 Norte 10 Nordeste 0 -- -- 87
2019-10-11 02:00:00 16.3 4 Norte 10 Nordeste 0 -- -- 85
2019-10-11 01:00:00 16 4 Norte 8 Nordeste 0 -- -- 86
2019-10-11 00:00:00 16.6 4 Norte 7 Nordeste 0 -- -- 80
2019-10-10 23:00:00 19.2 0 Calma 6 Noroeste 0 -- -- 80
2019-10-10 22:00:00 20.6 0 Calma 13 Oeste 0 -- -- 75
2019-10-10 21:00:00 21.8 9 Sudoeste 19 Oeste 0 -- -- 73
2019-10-10 20:00:00 23.6 15 Oeste 25 Oeste 0 -- -- 66
2019-10-10 19:00:00 26.7 17 Oeste 28 Sudoeste 0 -- -- 56
2019-10-10 18:00:00 28.9 21 Sudoeste 29 Oeste 0 -- -- 50
2019-10-10 17:00:00 30.4 21 Oeste 28 Oeste 0 -- -- 37
2019-10-10 16:00:00 32.7 13 Sudoeste 22 Oeste 0 -- -- 32
2019-10-10 15:00:00 32.8 7 Sudeste 21 Sur 0 -- -- 34
2019-10-10 14:00:00 31.2 8 Sudeste 20 Este 0 -- -- 34
2019-10-10 13:00:00 27.9 6 Nordeste 12 Nordeste 0 -- -- 44
2019-10-10 12:00:00 25 5 Nordeste 12 Nordeste 0 -- -- 56
2019-10-10 11:00:00 21.5 4 Nordeste 12 Nordeste 0 -- -- 72
2019-10-10 10:00:00 16.4 6 Nordeste 10 Nordeste 0 -- -- 92
2019-10-10 09:00:00 12.6 3 Nordeste 6 Nordeste 0 -- -- 92
2019-10-10 08:00:00 13.5 0 Calma 12 Norte 0 -- -- 91
2019-10-10 07:00:00 14.3 4 Norte 11 Norte 0 -- -- 94
2019-10-10 06:00:00 13.7 3 Nordeste 5 Nordeste 0 -- -- 90
2019-10-10 05:00:00 15.6 2 Noroeste 6 Sudoeste 0 -- -- 92
2019-10-10 04:00:00 17.3 5 Sudoeste 8 Sur 0 -- -- 95
2019-10-10 03:00:00 17 5 Sudoeste 8 Sur 0 -- -- 94
2019-10-10 02:00:00 16.6 4 Sur 8 Sur 0 -- -- 89
2019-10-10 01:00:00 17.2 6 Sur 8 Sur 0 -- -- 83
2019-10-10 00:00:00 18.5 3 Sudeste 11 Oeste 0 -- -- 77
2019-10-09 23:00:00 20.1 6 Oeste 16 Oeste 0 -- -- 75
2019-10-09 22:00:00 21.1 11 Oeste 19 Oeste 0 -- -- 71
2019-10-09 21:00:00 22 13 Oeste 17 Oeste 0 -- -- 50
2019-10-09 20:00:00 24.7 12 Oeste 18 Oeste 0 -- -- 49
2019-10-09 19:00:00 27.8 15 Oeste 23 Oeste 0 -- -- 41
2019-10-09 18:00:00 29.3 16 Oeste 26 Oeste 0 -- -- 38
2019-10-09 17:00:00 28.9 18 Oeste 25 Sudoeste 0 -- -- 41
2019-10-09 16:00:00 29.5 18 Sudoeste 24 Sudoeste 0 -- -- 38
2019-10-09 15:00:00 29.1 14 Sudoeste 21 Oeste 0 -- -- 42
2019-10-09 14:00:00 29.1 13 Sudoeste 19 Sudoeste 0 -- -- 41
2019-10-09 13:00:00 28.3 8 Sudoeste 14 Sudoeste 0 -- -- 45
2019-10-09 12:00:00 26.1 8 Sudoeste 15 Sudoeste 0 -- -- 55
2019-10-09 11:00:00 22.2 3 Noroeste 7 Noroeste 0 -- -- 73
2019-10-09 10:00:00 18 3 Noroeste 9 Noroeste 0 -- -- 98
2019-10-09 09:00:00 13.5 5 Oeste 8 Oeste 0 -- -- 97
2019-10-09 08:00:00 12 4 Sur 6 Sudoeste 0 -- -- 95
2019-10-09 07:00:00 12.5 4 Sudoeste 5 Sudoeste 0 -- -- 94
2019-10-09 06:00:00 12.8 4 Sur 5 Sur 0 -- -- 92
2019-10-09 05:00:00 13.7 2 Sudeste 5 Sudeste 0 -- -- 91
2019-10-09 04:00:00 14.5 0 Calma 4 Oeste 0 -- -- 89
2019-10-09 03:00:00 15.5 4 Sudoeste 12 Norte 0 -- -- 86
2019-10-09 02:00:00 17.2 6 Noroeste 11 Noroeste 0 -- -- 88
2019-10-09 01:00:00 17.7 5 Noroeste 12 Noroeste 0 -- -- 86
2019-10-09 00:00:00 18.3 5 Noroeste 12 Oeste 0 -- -- 84
2019-10-08 23:00:00 19 6 Noroeste 11 Oeste 0 -- -- 81
2019-10-08 22:00:00 20 5 Noroeste 9 Oeste 0 -- -- 76
2019-10-08 21:00:00 22 6 Oeste 23 Sur 0 -- -- 71
2019-10-08 20:00:00 24.2 10 Sudoeste 24 Oeste 0 -- -- 60
2019-10-08 19:00:00 26.6 18 Sudoeste 28 Oeste 0 -- -- 54
2019-10-08 18:00:00 27.3 23 Sudoeste 33 Oeste 0 -- -- 52
2019-10-08 17:00:00 28.7 23 Sudoeste 32 Sudoeste 0 -- -- 47
2019-10-08 16:00:00 31.7 18 Sudoeste 25 Sudoeste 0 -- -- 40
2019-10-08 15:00:00 32.7 16 Sudoeste 24 Sudoeste 0 -- -- 33
2019-10-08 14:00:00 32.3 7 Sur 18 Sudeste 0 -- -- 30
2019-10-08 13:00:00 30.5 8 Sur 19 Sudeste 0 -- -- 34
2019-10-08 12:00:00 27.7 6 Sudeste 12 Este 0 -- -- 42
2019-10-08 11:00:00 23.7 4 Nordeste 10 Sudeste 0 -- -- 54
2019-10-08 10:00:00 17.5 0 Calma 7 Norte 0 -- -- 81
2019-10-08 09:00:00 15.3 5 Norte 11 Norte 0 -- -- 82
2019-10-08 08:00:00 13.2 6 Noroeste 10 Noroeste 0 -- -- 90
2019-10-08 07:00:00 13.4 3 Norte 13 Nordeste 0 -- -- 89
2019-10-08 06:00:00 14.8 10 Nordeste 13 Norte 0 -- -- 87
2019-10-08 05:00:00 13.6 4 Norte 8 Nordeste 0 -- -- 88
2019-10-08 04:00:00 13.6 0 Calma 6 Sudoeste 0 -- -- 85
2019-10-08 03:00:00 14.7 3 Sudoeste 5 Sur 0 -- -- 89
2019-10-08 02:00:00 14.7 0 Calma 9 Este 0 -- -- 84
2019-10-08 01:00:00 15.2 5 Este 9 Sudeste 0 -- -- 81
2019-10-08 00:00:00 16 5 Nordeste 6 Nordeste 0 -- -- 81
2019-10-07 23:00:00 18 3 Noroeste 9 Oeste 0 -- -- 75
2019-10-07 22:00:00 20.3 6 Oeste 17 Oeste 0 -- -- 74
2019-10-07 21:00:00 21 12 Oeste 23 Oeste 0 -- -- 70
2019-10-07 20:00:00 23.3 15 Oeste 24 Oeste 0 -- -- 52
2019-10-07 19:00:00 26.8 15 Oeste 24 Sudoeste 0 -- -- 39
2019-10-07 18:00:00 28.7 17 Sudoeste 26 Sudoeste 0 -- -- 39
2019-10-07 17:00:00 29.1 21 Sudoeste 26 Oeste 0 -- -- 36
2019-10-07 16:00:00 29.2 19 Sudoeste 26 Sudoeste 0 -- -- 45
2019-10-07 15:00:00 32.2 5 Noroeste 19 Nordeste 0 -- -- 26
2019-10-07 14:00:00 30.6 5 Nordeste 15 Nordeste 0 -- -- 30
2019-10-07 13:00:00 28.3 7 Nordeste 17 Nordeste 0 -- -- 36
2019-10-07 12:00:00 24.8 5 Nordeste 12 Nordeste 0 -- -- 49
2019-10-07 11:00:00 20.7 5 Nordeste 11 Nordeste 0 -- -- 71
2019-10-07 10:00:00 14.8 5 Nordeste 8 Nordeste 0 -- -- 92
2019-10-07 09:00:00 9.6 0 Calma 6 Nordeste 0 -- -- 90
2019-10-07 08:00:00 11.5 4 Norte 8 Nordeste 0 -- -- 90
2019-10-07 07:00:00 12.4 5 Norte 9 Nordeste 0 -- -- 93
2019-10-07 06:00:00 11.7 3 Nordeste 10 Nordeste 0 -- -- 90
2019-10-07 05:00:00 11.6 7 Nordeste 11 Norte 0 -- -- 94
2019-10-07 04:00:00 10.9 7 Nordeste 10 Nordeste 0 -- -- 92
2019-10-07 03:00:00 12.7 4 Oeste 7 Oeste 0 -- -- 92
2019-10-07 02:00:00 13.7 2 Sudeste 6 Sudeste 0 -- -- 94
2019-10-07 01:00:00 13.8 3 Sudeste 9 Sudeste 0 -- -- 91
2019-10-07 00:00:00 15.2 0 Calma 7 Noroeste 0 -- -- 83
2019-10-06 23:00:00 17.5 6 Oeste 18 Oeste 0 -- -- 88
2019-10-06 22:00:00 18.8 14 Oeste 21 Oeste 0 -- -- 85
2019-10-06 21:00:00 19.5 13 Oeste 22 Oeste 0 -- -- 82
2019-10-06 20:00:00 21.2 17 Oeste 24 Oeste 0 -- -- 66
2019-10-06 19:00:00 23.7 16 Oeste 26 Oeste 0 -- -- 49
2019-10-06 18:00:00 26 21 Oeste 28 Sudoeste 0 -- -- 48
2019-10-06 17:00:00 26.9 22 Sudoeste 31 Sudoeste 0 -- -- 49
2019-10-06 16:00:00 27.2 19 Sudoeste 26 Sudoeste 0 -- -- 51
2019-10-06 15:00:00 28.9 16 Sudoeste 22 Sudoeste 0 -- -- 47
2019-10-06 14:00:00 28.2 5 Sudeste 16 Sudeste 0 -- -- 43
2019-10-06 13:00:00 25.2 7 Nordeste 19 Nordeste 0 -- -- 56
2019-10-06 12:00:00 22.4 8 Nordeste 15 Nordeste 0 -- -- 64
2019-10-06 11:00:00 19 10 Nordeste 15 Nordeste 0 -- -- 78
2019-10-06 10:00:00 13.8 7 Nordeste 11 Nordeste 0 -- -- 94
2019-10-06 09:00:00 11.4 4 Norte 12 Noroeste 0 -- -- 90
2019-10-06 08:00:00 11.2 4 Norte 15 Noroeste 0 -- -- 87
2019-10-06 07:00:00 11.8 8 Norte 13 Norte 0 -- -- 91
2019-10-06 06:00:00 10.9 6 Oeste 12 Noroeste 0 -- -- 95
2019-10-06 05:00:00 10.6 0 Calma 7 Norte 0 -- -- 91
2019-10-06 04:00:00 12.3 3 Norte 5 Norte 0 -- -- 92
2019-10-06 03:00:00 12.7 5 Oeste 8 Noroeste 0 -- -- 92
2019-10-06 02:00:00 13.7 0 Calma 5 Este 0 -- -- 92
2019-10-06 01:00:00 14.7 0 Calma 13 Oeste 0 -- -- 87
2019-10-06 00:00:00 17.3 10 Oeste 16 Oeste 0 -- -- 88
2019-10-05 23:00:00 17.8 12 Oeste 19 Oeste 0 -- -- 86
2019-10-05 22:00:00 18.2 14 Oeste 22 Oeste 0 -- -- 87
2019-10-05 21:00:00 19.3 15 Oeste 24 Oeste 0 -- -- 87
2019-10-05 20:00:00 20.8 17 Oeste 27 Oeste 0 -- -- 75
2019-10-05 19:00:00 23.9 21 Oeste 31 Oeste 0 -- -- 56
2019-10-05 18:00:00 26 21 Oeste 30 Oeste 0 -- -- 47
2019-10-05 17:00:00 27.2 22 Oeste 30 Oeste 0 -- -- 42
2019-10-05 16:00:00 26.6 22 Oeste 29 Sudoeste 0 -- -- 48
2019-10-05 15:00:00 27.3 20 Sudoeste 31 Sudoeste 0 -- -- 49
2019-10-05 14:00:00 26.5 19 Sudoeste 23 Sudoeste 0 -- -- 54
2019-10-05 13:00:00 24.2 6 Nordeste 13 Noroeste 0 -- -- 61
2019-10-05 12:00:00 22 6 Nordeste 15 Nordeste 0 -- -- 72
2019-10-05 11:00:00 19.7 7 Nordeste 15 Nordeste 0 -- -- 82
2019-10-05 10:00:00 14.8 4 Norte 9 Noroeste 0 -- -- 97
2019-10-05 09:00:00 11.6 5 Nordeste 8 Nordeste 0 -- -- 95
2019-10-05 08:00:00 11.7 3 Este 13 Norte 0 -- -- 93
2019-10-05 07:00:00 13.4 7 Noroeste 13 Norte 0 -- -- 97
2019-10-05 06:00:00 12.8 0 Calma 6 Noroeste 0 -- -- 95
2019-10-05 05:00:00 14 -- -- -- -- 0 -- -- 96
2019-10-05 04:00:00 15.1 6 Oeste 8 Oeste 0 -- -- 97
2019-10-05 03:00:00 15.7 5 Oeste 8 Sudoeste 0 -- -- 96
2019-10-05 02:00:00 14.9 6 Oeste 8 Oeste 0 -- -- 95
2019-10-05 01:00:00 15.9 3 Sur 6 Sudoeste 0 -- -- 93
2019-10-05 00:00:00 16.8 4 Sudoeste 5 Sudoeste 0 -- -- 89
2019-10-04 23:00:00 18.6 7 Oeste 16 Oeste 0 -- -- 91
2019-10-04 22:00:00 19.3 13 Oeste 20 Oeste 0 -- -- 88
2019-10-04 21:00:00 20.1 16 Oeste 27 Oeste 0 -- -- 87
2019-10-04 20:00:00 21.5 20 Oeste 30 Oeste 0 -- -- 81
2019-10-04 19:00:00 24.7 19 Oeste 31 Oeste 0 -- -- 65
2019-10-04 18:00:00 27.2 21 Oeste 32 Oeste 0 -- -- 54
2019-10-04 17:00:00 27.8 21 Oeste 31 Oeste 0 -- -- 54
2019-10-04 16:00:00 26.9 21 Oeste 30 Sudoeste 0 -- -- 58
2019-10-04 15:00:00 27.1 19 Sudoeste 27 Sudoeste 0 -- -- 56
2019-10-04 14:00:00 26.7 15 Sudoeste 22 Sudoeste 0 -- -- 54
2019-10-04 13:00:00 25 4 Nordeste 12 Nordeste 0 -- -- 58
2019-10-04 12:00:00 21.6 5 Norte 13 Nordeste 0 -- -- 73
2019-10-04 11:00:00 17.7 4 Norte 12 Nordeste 0 -- -- 97
2019-10-04 10:00:00 15 4 Norte 8 Norte 0 -- -- 99
2019-10-04 09:00:00 13.4 3 Norte 11 Noroeste 0 -- -- 98
2019-10-04 08:00:00 12.6 4 Norte 10 Norte 0 -- -- 98
2019-10-04 07:00:00 12.9 3 Norte 9 Norte 0 -- -- 98
2019-10-04 06:00:00 12.7 4 Norte 11 Noroeste 0 -- -- 97
2019-10-04 05:00:00 12.3 3 Norte 7 Norte 0 -- -- 97
2019-10-04 04:00:00 12 3 Norte 10 Norte 0 -- -- 97
2019-10-04 03:00:00 11.1 3 Norte 6 Oeste 0 -- -- 93
2019-10-04 02:00:00 12.4 3 Oeste 5 Oeste 0 -- -- 93
2019-10-04 01:00:00 13.3 0 Calma 5 Nordeste 0 -- -- 89
2019-10-04 00:00:00 15.3 0 Calma 5 Sur 0 -- -- 88
2019-10-03 23:00:00 17.5 3 Sur 15 Sudoeste 0 -- -- 88
2019-10-03 22:00:00 18.6 13 Sudoeste 19 Sudoeste 0 -- -- 89
2019-10-03 21:00:00 19.2 14 Sudoeste 27 Sudoeste 0 -- -- 86
2019-10-03 20:00:00 20.5 18 Sudoeste 33 Sudoeste 0 -- -- 82
2019-10-03 19:00:00 22.4 23 Sudoeste 35 Sudoeste 0 -- -- 70
2019-10-03 18:00:00 24.1 26 Sudoeste 36 Sudoeste 0 -- -- 60
2019-10-03 17:00:00 24.4 27 Sudoeste 35 Sudoeste 0 -- -- 51
2019-10-03 16:00:00 24.8 24 Sudoeste 33 Oeste 0 -- -- 52
2019-10-03 15:00:00 25.2 19 Sudoeste 28 Oeste 0 -- -- 48
2019-10-03 14:00:00 24.3 17 Sudoeste 24 Sudoeste 0 -- -- 51
2019-10-03 13:00:00 23.6 15 Sudoeste 21 Sudoeste 0 -- -- 51
2019-10-03 12:00:00 22.6 4 Sur 11 Sudeste 0 -- -- 54
2019-10-03 11:00:00 17.9 2 Nordeste 9 Nordeste 0 -- -- 71
2019-10-03 10:00:00 12.9 3 Norte 8 Noroeste 0 -- -- 97
2019-10-03 09:00:00 10.3 4 Oeste 9 Noroeste 0 -- -- 96
2019-10-03 08:00:00 8.2 0 Calma 9 Noroeste 0 -- -- 92
2019-10-03 07:00:00 8.8 3 Noroeste 5 Noroeste 0 -- -- 88
2019-10-03 06:00:00 11.6 2 Noroeste 12 Norte 0 -- -- 85
2019-10-03 05:00:00 12.4 6 Noroeste 10 Noroeste 0 -- -- 91
2019-10-03 04:00:00 10.8 5 Noroeste 8 Noroeste 0 -- -- 87
2019-10-03 03:00:00 12.9 0 Calma 12 Oeste 0 -- -- 86
2019-10-03 02:00:00 14.4 12 Oeste 14 Oeste 0 -- -- 87
2019-10-03 01:00:00 16.1 4 Sudoeste 9 Sudoeste 0 -- -- 93
2019-10-03 00:00:00 16.8 7 Sudoeste 14 Sudoeste 0 -- -- 92
2019-10-02 23:00:00 17.3 12 Sudoeste 15 Sudoeste 0 -- -- 90
2019-10-02 22:00:00 18.8 13 Sudoeste 20 Sudoeste 0 -- -- 86
2019-10-02 21:00:00 19.3 15 Sudoeste 28 Sudoeste 0 -- -- 84
2019-10-02 20:00:00 20.3 21 Sudoeste 34 Sudoeste 0 -- -- 79
2019-10-02 19:00:00 21.3 24 Oeste 36 Oeste 0 -- -- 74
2019-10-02 18:00:00 23.2 27 Sudoeste 37 Sudoeste 0 -- -- 63
2019-10-02 17:00:00 24.5 28 Oeste 40 Sudoeste 0 -- -- 57
2019-10-02 16:00:00 26.1 26 Oeste 36 Sudoeste 0 -- -- 47
2019-10-02 15:00:00 26.1 23 Oeste 32 Sudoeste 0 -- -- 44
2019-10-02 14:00:00 25.7 23 Sudoeste 30 Sudoeste 0 -- -- 47
2019-10-02 13:00:00 24.3 9 Noroeste 18 Noroeste 0 -- -- 46
2019-10-02 12:00:00 22.2 8 Oeste 16 Oeste 0 -- -- 54
2019-10-02 11:00:00 18.8 5 Noroeste 20 Noroeste 0 -- -- 70
2019-10-02 10:00:00 15.6 13 Noroeste 24 Noroeste 0 -- -- 87
2019-10-02 09:00:00 11.4 5 Oeste 10 Oeste 0 -- -- 92
2019-10-02 08:00:00 12.5 8 Oeste 12 Oeste 0 -- -- 88
2019-10-02 07:00:00 14.6 7 Noroeste 19 Oeste 0 -- -- 85
2019-10-02 06:00:00 15.6 10 Oeste 20 Oeste 0 -- -- 83
2019-10-02 05:00:00 15.5 9 Oeste 17 Oeste 0 -- -- 82
2019-10-02 04:00:00 16.9 10 Oeste 18 Oeste 0 -- -- 79
2019-10-02 03:00:00 18.5 9 Oeste 19 Noroeste 0 -- -- 75
2019-10-02 02:00:00 19.9 12 Noroeste 21 Noroeste 0 -- -- 72
2019-10-02 01:00:00 21.1 12 Noroeste 24 Oeste 0 -- -- 69
2019-10-02 00:00:00 19.8 11 Noroeste 19 Oeste 0 -- -- 73
2019-10-01 23:00:00 19 9 Oeste 14 Oeste 0 -- -- 83
2019-10-01 22:00:00 20.2 10 Oeste 23 Oeste 0 -- -- 82
2019-10-01 21:00:00 21.2 16 Oeste 26 Oeste 0 -- -- 82
2019-10-01 20:00:00 22.6 21 Oeste 37 Oeste 0 -- -- 73
2019-10-01 19:00:00 24 26 Oeste 40 Oeste 0 -- -- 66
2019-10-01 18:00:00 25.2 28 Oeste 43 Oeste 0 -- -- 61
2019-10-01 17:00:00 26 30 Oeste 42 Oeste 0 -- -- 59
2019-10-01 16:00:00 28 29 Oeste 39 Sudoeste 0 -- -- 49
2019-10-01 15:00:00 30.1 17 Oeste 31 Oeste 0 -- -- 35
2019-10-01 14:00:00 29.3 12 Noroeste 32 Noroeste 0 -- -- 34
2019-10-01 13:00:00 27.6 13 Noroeste 33 Noroeste 0 -- -- 42
2019-10-01 12:00:00 25.3 10 Noroeste 23 Noroeste 0 -- -- 51
2019-10-01 11:00:00 22.6 12 Noroeste 22 Noroeste 0 -- -- 63
2019-10-01 10:00:00 18.9 12 Noroeste 20 Noroeste 0 -- -- 81
2019-10-01 09:00:00 13 7 Oeste 10 Oeste 0 -- -- 93
2019-10-01 08:00:00 12.7 5 Oeste 7 Oeste 0 -- -- 90
2019-10-01 07:00:00 13.3 4 Oeste 8 Oeste 0 -- -- 88
2019-10-01 06:00:00 12.8 5 Oeste 7 Oeste 0 -- -- 89
2019-10-01 05:00:00 12.5 4 Oeste 6 Oeste 0 -- -- 90
2019-10-01 04:00:00 12.8 4 Oeste 6 Oeste 0 -- -- 94
2019-10-01 03:00:00 13.5 5 Oeste 9 Oeste 0 -- -- 94
2019-10-01 02:00:00 13.6 6 Oeste 10 Oeste 0 -- -- 92
2019-10-01 01:00:00 14.5 3 Oeste 7 Noroeste 0 -- -- 77
2019-10-01 00:00:00 16.9 4 Noroeste 10 Oeste 0 -- -- 77
2019-09-30 23:00:00 18.3 9 Oeste 14 Oeste 0 -- -- 74
2019-09-30 22:00:00 19.4 9 Oeste 18 Oeste 0 -- -- 78
2019-09-30 21:00:00 20.7 12 Oeste 14 Oeste 0 -- -- 73
2019-09-30 20:00:00 24.2 10 Oeste 22 Oeste 0 -- -- 54
2019-09-30 19:00:00 27.2 15 Oeste 25 Oeste 0 -- -- 39
2019-09-30 18:00:00 28 18 Oeste 26 Sudoeste 0 -- -- 45
2019-09-30 17:00:00 29.5 18 Sudoeste 27 Sudoeste 0 -- -- 46
2019-09-30 16:00:00 30.3 17 Sudoeste 22 Sudoeste 0 -- -- 47
2019-09-30 15:00:00 29 15 Sudoeste 22 Sudoeste 0 -- -- 53
2019-09-30 14:00:00 26.9 4 Nordeste 12 Nordeste 0 -- -- 56
2019-09-30 13:00:00 24.2 4 Norte 10 Este 0 -- -- 70
2019-09-30 12:00:00 20.1 3 Sudeste 9 Sur 0 -- -- 98
2019-09-30 11:00:00 19.1 4 Este 12 Sur 0 -- -- 98
2019-09-30 10:00:00 18.2 3 Este 7 Sudeste 0 -- -- 98
2019-09-30 09:00:00 15.9 3 Nordeste 8 Nordeste 0 -- -- 98
2019-09-30 08:00:00 13.9 5 Nordeste 8 Nordeste 0 -- -- 98
2019-09-30 07:00:00 12.6 0 Calma 8 Norte 0 -- -- 97
2019-09-30 06:00:00 11.9 4 Nordeste 6 Nordeste 0 -- -- 97
2019-09-30 05:00:00 11.4 3 Norte 6 Nordeste 0 -- -- 97
2019-09-30 04:00:00 13.3 0 Calma 6 Sudoeste 0 -- -- 96
2019-09-30 03:00:00 13 3 Sudoeste 5 Sudoeste 0 -- -- 97
2019-09-30 02:00:00 13.6 3 Sudoeste 5 Sudoeste 0 -- -- 96
2019-09-30 01:00:00 13.8 3 Sudoeste 5 Sudoeste 0 -- -- 93
2019-09-30 00:00:00 15.7 0 Calma 3 Sudoeste 0 -- -- 90
2019-09-29 23:00:00 17.2 3 Sur 7 Sur 0 -- -- 91
2019-09-29 22:00:00 18.8 4 Sudoeste 9 Sur 0 -- -- 89
2019-09-29 21:00:00 20.3 6 Sudoeste 10 Sudoeste 0 -- -- 81
2019-09-29 20:00:00 23 9 Oeste 20 Oeste 0 -- -- 75
2019-09-29 19:00:00 25.4 14 Sudoeste 23 Sudoeste 0 -- -- 64
2019-09-29 18:00:00 26.4 17 Oeste 26 Sudoeste 0 -- -- 59
2019-09-29 17:00:00 26.8 17 Sudoeste 29 Sudoeste 0 -- -- 60
2019-09-29 16:00:00 27.1 22 Sudoeste 29 Sudoeste 0 -- -- 56
2019-09-29 15:00:00 27.9 19 Sudoeste 27 Sudoeste 0 -- -- 53
2019-09-29 14:00:00 27.6 15 Sudoeste 29 Oeste 0 -- -- 54
2019-09-29 13:00:00 26.9 11 Sudoeste 18 Sudoeste 0 -- -- 63
2019-09-29 12:00:00 26.2 11 Sur 21 Sur 0 -- -- 60
2019-09-29 11:00:00 22.6 8 Sur 16 Sur 0 -- -- 71
2019-09-29 10:00:00 15.7 4 Este 8 Este 0 -- -- 97
2019-09-29 09:00:00 10.2 2 Este 5 Este 0 -- -- 94
2019-09-29 08:00:00 10 2 Nordeste 9 Nordeste 0 -- -- 92
2019-09-29 07:00:00 10.9 3 Sudeste 6 Sudeste 0 -- -- 94
2019-09-29 06:00:00 11.3 0 Calma 4 Norte 0 -- -- 93
2019-09-29 05:00:00 12.5 2 Norte 6 Noroeste 0 -- -- 93
2019-09-29 04:00:00 13.2 5 Norte 10 Nordeste 0 -- -- 93
2019-09-29 03:00:00 14.4 7 Sudoeste 12 Sur 0 -- -- 93
2019-09-29 02:00:00 15.1 6 Sudoeste 8 Sur 0 -- -- 93
2019-09-29 01:00:00 15.1 5 Sur 9 Sur 0 -- -- 92
2019-09-29 00:00:00 15.1 3 Sudeste 8 Sur 0 -- -- 86
2019-09-28 23:00:00 16.3 4 Sur 6 Sur 0 -- -- 81
2019-09-28 22:00:00 19.1 3 Oeste 14 Oeste 0 -- -- 76
2019-09-28 21:00:00 20.9 8 Oeste 19 Oeste 0 -- -- 76
2019-09-28 20:00:00 23.7 14 Oeste 26 Oeste 0 -- -- 64
2019-09-28 19:00:00 26.7 18 Oeste 26 Sudoeste 0 -- -- 51
2019-09-28 18:00:00 29.6 20 Sudoeste 25 Sudoeste 0 -- -- 40
2019-09-28 17:00:00 31.1 19 Sudoeste 25 Sudoeste 0 -- -- 35
2019-09-28 16:00:00 31.1 19 Sudoeste 27 Sudoeste 0 -- -- 39
2019-09-28 15:00:00 31.6 17 Sudoeste 23 Sudoeste 0 -- -- 36
2019-09-28 14:00:00 32.3 5 Sur 15 Sur 0 -- -- 32
2019-09-28 13:00:00 29.3 5 Sur 15 Nordeste 0 -- -- 37
2019-09-28 12:00:00 25.9 6 Nordeste 15 Nordeste 0 -- -- 48
2019-09-28 11:00:00 22.3 8 Nordeste 14 Nordeste 0 -- -- 62
2019-09-28 10:00:00 16.6 5 Nordeste 10 Nordeste 0 -- -- 87
2019-09-28 09:00:00 14 6 Norte 11 Nordeste 0 -- -- 95
2019-09-28 08:00:00 14.3 7 Nordeste 10 Nordeste 0 -- -- 96
2019-09-28 07:00:00 13.5 5 Norte 11 Norte 0 -- -- 96
2019-09-28 06:00:00 12.1 2 Norte 10 Nordeste 0 -- -- 95
2019-09-28 05:00:00 12.2 4 Norte 9 Nordeste 0 -- -- 95
2019-09-28 04:00:00 12.2 0 Calma 5 Nordeste 0 -- -- 93
2019-09-28 03:00:00 12.7 2 Norte 4 Nordeste 0 -- -- 91
2019-09-28 02:00:00 13.9 0 Calma 9 Sur 0 -- -- 92
2019-09-28 01:00:00 14 3 Sudeste 6 Sudoeste 0 -- -- 87
2019-09-28 00:00:00 17.7 4 Oeste 11 Oeste 0 -- -- 91
2019-09-27 23:00:00 18.6 8 Oeste 12 Oeste 0 -- -- 90
2019-09-27 22:00:00 19.5 9 Oeste 13 Sudoeste 0 -- -- 89
2019-09-27 21:00:00 20.6 10 Oeste 19 Oeste 0 -- -- 84
2019-09-27 20:00:00 22.8 15 Oeste 25 Oeste 0 -- -- 70
2019-09-27 19:00:00 25.3 18 Oeste 24 Oeste 0 -- -- 58
2019-09-27 18:00:00 26.6 20 Sudoeste 27 Sudoeste 0 -- -- 50
2019-09-27 17:00:00 27.4 21 Sudoeste 29 Sudoeste 0 -- -- 49
2019-09-27 16:00:00 28.3 22 Sudoeste 27 Sudoeste 0 -- -- 44
2019-09-27 15:00:00 28.5 18 Sudoeste 25 Sudoeste 0 -- -- 42
2019-09-27 14:00:00 28.5 17 Sudoeste 23 Sudoeste 0 -- -- 51
2019-09-27 13:00:00 28.1 13 Sur 21 Sudoeste 0 -- -- 55
2019-09-27 12:00:00 25.8 9 Sudoeste 15 Sudoeste 0 -- -- 60
2019-09-27 11:00:00 21 2 Este 8 Nordeste 0 -- -- 75
2019-09-27 10:00:00 14.4 5 Nordeste 9 Nordeste 0 -- -- 97
2019-09-27 09:00:00 11.2 4 Norte 8 Nordeste 0 -- -- 96
2019-09-27 08:00:00 11.6 5 Norte 9 Norte 0 -- -- 97
2019-09-27 07:00:00 9.6 4 Nordeste 5 Nordeste 0 -- -- 94
2019-09-27 06:00:00 9.9 4 Oeste 7 Oeste 0 -- -- 94
2019-09-27 05:00:00 10.6 4 Oeste 6 Oeste 0 -- -- 92
2019-09-27 04:00:00 12.9 2 Sur 5 Sur 0 -- -- 95
2019-09-27 03:00:00 13.8 0 Calma 6 Sur 0 -- -- 93
2019-09-27 02:00:00 13.6 4 Sur 15 Nordeste 0 -- -- 92
2019-09-27 01:00:00 13.7 5 Sur 6 Sur 0 -- -- 80
2019-09-27 00:00:00 16.2 0 Calma 10 Oeste 0 -- -- 83
2019-09-26 23:00:00 18.3 9 Oeste 16 Oeste 0 -- -- 77
2019-09-26 22:00:00 19.3 12 Oeste 17 Oeste 0 -- -- 81
2019-09-26 21:00:00 20.8 13 Oeste 20 Oeste 0 -- -- 75
2019-09-26 20:00:00 24.1 14 Oeste 25 Oeste 0 -- -- 54
2019-09-26 19:00:00 27.1 19 Oeste 27 Sudoeste 0 -- -- 44
2019-09-26 18:00:00 28.4 21 Oeste 27 Sudoeste 0 -- -- 35
2019-09-26 17:00:00 29.2 20 Sudoeste 29 Oeste 0 -- -- 37
2019-09-26 16:00:00 29.4 22 Oeste 28 Oeste 0 -- -- 37
2019-09-26 15:00:00 29.8 17 Oeste 24 Sudoeste 0 -- -- 38
2019-09-26 14:00:00 30.7 14 Sudoeste 21 Sudoeste 0 -- -- 37
2019-09-26 13:00:00 28.2 5 Nordeste 16 Este 0 -- -- 37
2019-09-26 12:00:00 25.7 9 Nordeste 17 Nordeste 0 -- -- 43
2019-09-26 11:00:00 22 7 Nordeste 13 Nordeste 0 -- -- 57
2019-09-26 10:00:00 15.8 4 Nordeste 7 Norte 0 -- -- 78
2019-09-26 09:00:00 10.4 2 Noroeste 4 Norte 0 -- -- 88
2019-09-26 08:00:00 11.3 3 Norte 8 Noroeste 0 -- -- 83
2019-09-26 07:00:00 12.9 4 Noroeste 10 Noroeste 0 -- -- 77
2019-09-26 06:00:00 11.9 0 Calma 5 Norte 0 -- -- 87
2019-09-26 05:00:00 13 0 Calma 13 Norte 0 -- -- 82
2019-09-26 04:00:00 15.6 7 Norte 12 Noroeste 0 -- -- 84
2019-09-26 03:00:00 16.8 5 Norte 9 Norte 0 -- -- 82
2019-09-26 02:00:00 17 3 Norte 10 Norte 0 -- -- 77
2019-09-26 01:00:00 17.8 6 Norte 13 Norte 0 -- -- 67
2019-09-26 00:00:00 19 5 Noroeste 17 Oeste 0 -- -- 65
2019-09-25 23:00:00 19.3 13 Oeste 20 Sudoeste 0 -- -- 82
2019-09-25 22:00:00 19.9 13 Sudoeste 21 Oeste 0 -- -- 82
2019-09-25 21:00:00 20.6 14 Sudoeste 25 Oeste 0 -- -- 78
2019-09-25 20:00:00 22.4 19 Oeste 32 Oeste 0 -- -- 67
2019-09-25 19:00:00 25.2 19 Oeste 30 Sudoeste 0 -- -- 54
2019-09-25 18:00:00 26.5 22 Oeste 31 Sudoeste 0 -- -- 52
2019-09-25 17:00:00 28 25 Sudoeste 33 Sudoeste 0 -- -- 34
2019-09-25 16:00:00 27.8 24 Sudoeste 32 Sudoeste 0 -- -- 41
2019-09-25 15:00:00 27.3 21 Sudoeste 30 Sudoeste 0 -- -- 45
2019-09-25 14:00:00 27.4 20 Sudoeste 28 Sudoeste 0 -- -- 45
2019-09-25 13:00:00 27.7 4 Sudoeste 12 Nordeste 0 -- -- 41
2019-09-25 12:00:00 24.8 4 Nordeste 14 Noroeste 0 -- -- 52
2019-09-25 11:00:00 22.5 6 Noroeste 17 Noroeste 0 -- -- 61
2019-09-25 10:00:00 19.8 9 Noroeste 17 Noroeste 0 -- -- 75
2019-09-25 09:00:00 17 8 Noroeste 14 Noroeste 0 -- -- 89
2019-09-25 08:00:00 17.5 6 Noroeste 14 Noroeste 0 -- -- 85
2019-09-25 07:00:00 18.5 6 Noroeste 13 Noroeste 0 -- -- 84
2019-09-25 06:00:00 19.1 6 Noroeste 16 Noroeste 0 -- -- 84
2019-09-25 05:00:00 19.2 6 Noroeste 12 Noroeste 0 -- -- 85
2019-09-25 04:00:00 20.2 5 Noroeste 10 Noroeste 0 -- -- 84
2019-09-25 03:00:00 20.9 6 Noroeste 13 Noroeste 0 -- -- 82
2019-09-25 02:00:00 21.9 3 Noroeste 14 Noroeste 0 -- -- 78
2019-09-25 01:00:00 22.1 7 Noroeste 17 Noroeste 0 -- -- 75
2019-09-25 00:00:00 21.4 9 Noroeste 14 Noroeste 0 -- -- 73
2019-09-24 23:00:00 20.2 7 Oeste 19 Oeste 0 -- -- 74
2019-09-24 22:00:00 21.4 14 Oeste 26 Oeste 0 -- -- 71
2019-09-24 21:00:00 21.8 17 Oeste 28 Oeste 0 -- -- 71
2019-09-24 20:00:00 23.8 19 Oeste 30 Oeste 0 -- -- 60
2019-09-24 19:00:00 26.5 21 Oeste 29 Oeste 0 -- -- 55
2019-09-24 18:00:00 29.5 22 Oeste 31 Oeste 0 -- -- 37
2019-09-24 17:00:00 29.6 23 Oeste 31 Oeste 0 -- -- 37
2019-09-24 16:00:00 29.8 21 Oeste 29 Sudoeste 0 -- -- 37
2019-09-24 15:00:00 30.1 19 Oeste 26 Oeste 0 -- -- 40
2019-09-24 14:00:00 30.7 5 Sudeste 15 Nordeste 0 -- -- 32
2019-09-24 13:00:00 27.9 6 Nordeste 16 Nordeste 0 -- -- 39
2019-09-24 12:00:00 25.5 6 Nordeste 17 Nordeste 0 -- -- 46
2019-09-24 11:00:00 21.1 6 Nordeste 10 Nordeste 0 -- -- 63
2019-09-24 10:00:00 16 5 Nordeste 10 Nordeste 0 -- -- 85
2019-09-24 09:00:00 12.3 5 Norte 9 Norte 0 -- -- 88
2019-09-24 08:00:00 11.7 4 Norte 13 Norte 0 -- -- 89
2019-09-24 07:00:00 11.7 8 Nordeste 11 Nordeste 0 -- -- 93
2019-09-24 06:00:00 10.6 4 Nordeste 8 Nordeste 0 -- -- 91
2019-09-24 05:00:00 11.6 2 Nordeste 4 Noroeste 0 -- -- 88
2019-09-24 04:00:00 13 0 Calma 6 Sudeste 0 -- -- 88
2019-09-24 03:00:00 15.1 4 Este 12 Noroeste 0 -- -- 78
2019-09-24 02:00:00 16.7 6 Oeste 10 Oeste 0 -- -- 90
2019-09-24 01:00:00 16.7 7 Oeste 12 Oeste 0 -- -- 84
2019-09-24 00:00:00 17.6 8 Oeste 13 Oeste 0 -- -- 82
2019-09-23 23:00:00 18.4 7 Oeste 11 Oeste 0 -- -- 80
2019-09-23 22:00:00 19.4 6 Oeste 16 Oeste 0 -- -- 77
2019-09-23 21:00:00 20.9 12 Oeste 21 Oeste 0 -- -- 72
2019-09-23 20:00:00 23.7 16 Oeste 27 Oeste 0 -- -- 57
2019-09-23 19:00:00 26.4 19 Oeste 28 Oeste 0 -- -- 44
2019-09-23 18:00:00 27.6 20 Oeste 28 Sudoeste 0 -- -- 41
2019-09-23 17:00:00 28.2 21 Oeste 27 Oeste 0 -- -- 41
2019-09-23 16:00:00 27.8 21 Oeste 30 Sudoeste 0 -- -- 43
2019-09-23 15:00:00 28.6 8 Noroeste 22 Oeste 0 -- -- 43
2019-09-23 14:00:00 27.2 8 Norte 20 Norte 0 -- -- 39
2019-09-23 13:00:00 26.5 9 Este 21 Este 0 -- -- 44
2019-09-23 12:00:00 24 11 Nordeste 20 Nordeste 0 -- -- 51
2019-09-23 11:00:00 21 14 Nordeste 19 Nordeste 0 -- -- 63
2019-09-23 10:00:00 16 6 Nordeste 11 Nordeste 0 -- -- 84
2019-09-23 09:00:00 11.6 4 Nordeste 7 Nordeste 0 -- -- 91
2019-09-23 08:00:00 12.7 2 Nordeste 15 Noroeste 0 -- -- 84
2019-09-23 07:00:00 13.7 8 Noroeste 14 Noroeste 0 -- -- 87
2019-09-23 06:00:00 14 6 Noroeste 12 Noroeste 0 -- -- 86
2019-09-23 05:00:00 14.8 4 Noroeste 11 Norte 0 -- -- 84
2019-09-23 04:00:00 15.2 4 Noroeste 13 Noroeste 0 -- -- 82
2019-09-23 03:00:00 15.8 8 Noroeste 13 Oeste 0 -- -- 84
2019-09-23 02:00:00 16.7 6 Noroeste 11 Oeste 0 -- -- 86
2019-09-23 01:00:00 17.9 3 Oeste 10 Oeste 0 -- -- 90
2019-09-23 00:00:00 18.1 8 Oeste 13 Oeste 0 -- -- 90
2019-09-22 23:00:00 19.2 10 Oeste 16 Oeste 0 -- -- 86
2019-09-22 22:00:00 20.1 12 Oeste 22 Oeste 0 -- -- 83
2019-09-22 21:00:00 20.6 14 Oeste 26 Oeste 0 -- -- 82
2019-09-22 20:00:00 22 16 Oeste 32 Sudoeste 0 -- -- 75
2019-09-22 19:00:00 23.2 21 Oeste 32 Sudoeste 0 -- -- 70
2019-09-22 18:00:00 24 24 Oeste 36 Oeste 0 -- -- 65
2019-09-22 17:00:00 25 23 Oeste 36 Oeste 0 -- -- 63
2019-09-22 16:00:00 25.9 24 Oeste 33 Sudoeste 0 -- -- 58
2019-09-22 15:00:00 24.9 24 Oeste 33 Oeste 0 -- -- 62
2019-09-22 14:00:00 25.8 15 Noroeste 30 Noroeste 0 -- -- 42
2019-09-22 13:00:00 24.4 10 Noroeste 27 Noroeste 0 -- -- 43
2019-09-22 12:00:00 22.9 14 Noroeste 24 Noroeste 0 -- -- 58
2019-09-22 11:00:00 20.3 12 Noroeste 22 Oeste 0 -- -- 70
2019-09-22 10:00:00 18.1 7 Noroeste 18 Oeste 0 -- -- 89
2019-09-22 09:00:00 18.4 10 Oeste 16 Oeste 0 -- -- 94
2019-09-22 08:00:00 19.1 6 Noroeste 13 Noroeste 0 -- -- 95
2019-09-22 07:00:00 19.8 4 Oeste 17 Oeste 0.8 -- -- 95
2019-09-22 06:00:00 20.7 11 Oeste 41 Sudoeste 1 -- -- 95
2019-09-22 05:00:00 21.7 17 Sur 28 Sur 0.2 -- -- 93
2019-09-22 04:00:00 21.6 17 Sur 25 Sudoeste 0 -- -- 93
2019-09-22 03:00:00 21.2 15 Sudoeste 22 Sudoeste 0 -- -- 95
2019-09-22 02:00:00 20.9 11 Sudoeste 16 Sur 0 -- -- 95
2019-09-22 01:00:00 20.5 8 Sudoeste 12 Sur 0 -- -- 94
2019-09-22 00:00:00 20.7 8 Sudoeste 14 Sudoeste 0 -- -- 94
2019-09-21 23:00:00 20.7 8 Sudoeste 13 Sur 0 -- -- 93
2019-09-21 22:00:00 21.1 5 Sur 14 Sudoeste 0.6 -- -- 91
2019-09-21 21:00:00 21.6 10 Sur 22 Sudoeste 0 -- -- 87
2019-09-21 20:00:00 21.8 10 Sudoeste 21 Sudoeste 0 -- -- 87
2019-09-21 19:00:00 22.1 13 Sudoeste 24 Sudoeste 0.2 -- -- 86
2019-09-21 18:00:00 22.9 20 Sudoeste 28 Sudoeste 0 -- -- 78
2019-09-21 17:00:00 23.9 19 Sur 30 Sudoeste 0 -- -- 73
2019-09-21 16:00:00 23.8 18 Sudoeste 32 Sudoeste 0 -- -- 73
2019-09-21 15:00:00 23.7 20 Sudoeste 28 Sudoeste 0 -- -- 73
2019-09-21 14:00:00 24.2 17 Sudoeste 26 Sudoeste 0 -- -- 68
2019-09-21 13:00:00 23.7 18 Sur 26 Sur 0 -- -- 70
2019-09-21 12:00:00 23.1 14 Sur 20 Sur 0 -- -- 75
2019-09-21 11:00:00 21.6 9 Sur 15 Sur 0 -- -- 82
2019-09-21 10:00:00 18.7 3 Sudeste 6 Sur 0 -- -- 91
2019-09-21 09:00:00 16.2 3 Este 7 Nordeste 0 -- -- 90
2019-09-21 08:00:00 15.8 3 Nordeste 6 Nordeste 0 -- -- 90
2019-09-21 07:00:00 15.5 2 Nordeste 6 Nordeste 0 -- -- 91
2019-09-21 06:00:00 15.3 2 Este 5 Este 0 -- -- 92
2019-09-21 05:00:00 15 0 Calma 4 Oeste 0 -- -- 92
2019-09-21 04:00:00 14.8 0 Calma 3 Sudeste 0 -- -- 89
2019-09-21 03:00:00 15.5 2 Este 5 Norte 0 -- -- 89
2019-09-21 02:00:00 16.8 2 Sudeste 10 Sudoeste 0 -- -- 90
2019-09-21 01:00:00 17 4 Sudoeste 8 Sur 0 -- -- 90
2019-09-21 00:00:00 17.5 6 Sur 8 Oeste 0 -- -- 88
2019-09-20 23:00:00 18.7 7 Oeste 12 Oeste 0 -- -- 88
2019-09-20 22:00:00 19.7 6 Oeste 22 Oeste 0 -- -- 85
2019-09-20 21:00:00 21 11 Oeste 19 Sudoeste 0 -- -- 85
2019-09-20 20:00:00 22.7 10 Sur 18 Oeste 0 -- -- 80
2019-09-20 19:00:00 23.5 15 Sudoeste 19 Sudoeste 0 -- -- 71
2019-09-20 18:00:00 26 12 Sudoeste 23 Sudoeste 0 -- -- 54
2019-09-20 17:00:00 26.6 15 Oeste 26 Oeste 0 -- -- 55
2019-09-20 16:00:00 25.6 14 Sudoeste 28 Oeste 0 -- -- 59
2019-09-20 15:00:00 24.8 16 Sudoeste 30 Sudoeste 0 -- -- 69
2019-09-20 14:00:00 24.6 17 Sudoeste 29 Sudoeste 0 -- -- 69
2019-09-20 13:00:00 23.7 18 Sur 28 Sur 0 -- -- 73
2019-09-20 12:00:00 24 17 Sur 25 Sur 0 -- -- 71
2019-09-20 11:00:00 21.4 2 Norte 7 Nordeste 0 -- -- 76
2019-09-20 10:00:00 18.7 5 Nordeste 9 Nordeste 0 -- -- 84
2019-09-20 09:00:00 16.5 3 Nordeste 9 Nordeste 0 -- -- 88
2019-09-20 08:00:00 15.7 3 Norte 10 Nordeste 0 -- -- 88
2019-09-20 07:00:00 15.2 4 Norte 13 Nordeste 0 -- -- 91
2019-09-20 06:00:00 15.2 3 Nordeste 5 Nordeste 0 -- -- 93
2019-09-20 05:00:00 15.2 2 Sur 7 Sur 0 -- -- 94
2019-09-20 04:00:00 14.7 0 Calma 5 Sur 0 -- -- 88
2019-09-20 03:00:00 15.5 3 Sur 6 Sudeste 0 -- -- 91
2019-09-20 02:00:00 15.6 4 Sudeste 6 Sudeste 0 -- -- 86
2019-09-20 01:00:00 16.3 2 Nordeste 6 Sudoeste 0 -- -- 86
2019-09-20 00:00:00 17.3 3 Sudeste 6 Sudeste 0 -- -- 83
2019-09-19 23:00:00 19.1 2 Sudeste 14 Oeste 0 -- -- 81
2019-09-19 22:00:00 19.9 7 Oeste 14 Oeste 0 -- -- 82
2019-09-19 21:00:00 21.2 8 Oeste 23 Oeste 0 -- -- 75
2019-09-19 20:00:00 23.1 17 Oeste 27 Oeste 0 -- -- 69
2019-09-19 19:00:00 24.8 18 Oeste 28 Oeste 0 -- -- 61
2019-09-19 18:00:00 25.8 19 Sudoeste 31 Oeste 0 -- -- 60
2019-09-19 17:00:00 26.7 20 Sudoeste 27 Sudoeste 0 -- -- 55
2019-09-19 16:00:00 26.7 19 Oeste 26 Sudoeste 0 -- -- 58
2019-09-19 15:00:00 26.9 15 Sudoeste 27 Sudoeste 0 -- -- 57
2019-09-19 14:00:00 26.7 14 Sudoeste 23 Sudoeste 0 -- -- 55
2019-09-19 13:00:00 26.3 12 Sudoeste 23 Sudoeste 0 -- -- 57
2019-09-19 12:00:00 25.1 8 Sur 19 Sur 0 -- -- 61
2019-09-19 11:00:00 22.1 5 Sur 14 Sur 0 -- -- 77
2019-09-19 10:00:00 17.1 4 Este 11 Este 0 -- -- 98
2019-09-19 09:00:00 13.9 5 Nordeste 8 Norte 0 -- -- 97
2019-09-19 08:00:00 14.1 3 Norte 8 Norte 0 -- -- 97
2019-09-19 07:00:00 13.2 2 Noroeste 9 Norte 0 -- -- 96
2019-09-19 06:00:00 12.8 0 Calma 6 Norte 0 -- -- 94
2019-09-19 05:00:00 12.9 0 Calma 5 Nordeste 0 -- -- 92
2019-09-19 04:00:00 14 3 Nordeste 7 Sur 0 -- -- 94
2019-09-19 03:00:00 14.7 6 Sur 9 Sur 0 -- -- 93
2019-09-19 02:00:00 15.7 7 Sur 8 Sur 0 -- -- 91
2019-09-19 01:00:00 16.7 3 Sur 6 Sudoeste 0 -- -- 92
2019-09-19 00:00:00 17.1 4 Sudoeste 7 Sudoeste 0 -- -- 91